createdAt,value
2024-04-06T00:00:44.950Z,569.00
2024-04-06T00:01:40.105Z,573.00
2024-04-06T00:02:35.229Z,577.00
2024-04-06T00:03:30.770Z,577.00
2024-04-06T00:04:25.637Z,571.00
2024-04-06T00:05:20.784Z,571.00
2024-04-06T00:06:15.900Z,577.00
2024-04-06T00:07:11.013Z,584.00
2024-04-06T00:08:13.233Z,577.00
2024-04-06T00:09:02.469Z,571.00
2024-04-06T00:09:56.508Z,572.00
2024-04-06T00:10:51.628Z,569.00
2024-04-06T00:11:46.831Z,572.00
2024-04-06T00:12:42.071Z,573.00
2024-04-06T00:13:37.464Z,565.00
2024-04-06T00:14:32.322Z,572.00
2024-04-06T00:15:27.441Z,571.00
2024-04-06T00:16:22.685Z,567.00
2024-04-06T00:17:17.799Z,564.00
2024-04-06T00:18:12.912Z,571.00
2024-04-06T00:19:08.230Z,571.00
2024-04-06T00:20:03.212Z,570.00
2024-04-06T00:20:58.302Z,567.00
2024-04-06T00:21:53.462Z,574.00
2024-04-06T00:22:48.560Z,569.00
2024-04-06T00:23:43.841Z,565.00
2024-04-06T00:24:38.830Z,566.00
2024-04-06T00:25:33.944Z,570.00
2024-04-06T00:26:29.120Z,576.00
2024-04-06T00:27:24.204Z,577.00
2024-04-06T00:28:19.299Z,568.00
2024-04-06T00:29:14.623Z,568.00
2024-04-06T00:30:09.597Z,569.00
2024-04-06T00:31:04.698Z,570.00
2024-04-06T00:31:59.948Z,569.00
2024-04-06T00:32:55.062Z,570.00
2024-04-06T00:33:50.296Z,566.00
2024-04-06T00:34:45.337Z,566.00
2024-04-06T00:35:40.445Z,569.00
2024-04-06T00:36:35.615Z,568.00
2024-04-06T00:37:30.719Z,565.00
2024-04-06T00:38:25.946Z,572.00
2024-04-06T00:39:21.360Z,564.00
2024-04-06T00:40:16.207Z,567.00
2024-04-06T00:41:11.936Z,569.00
2024-04-06T00:42:06.562Z,565.00
2024-04-06T00:43:01.721Z,566.00
2024-04-06T00:43:57.463Z,569.00
2024-04-06T00:44:52.144Z,582.00
2024-04-06T00:45:47.262Z,571.00
2024-04-06T00:46:42.396Z,568.00
2024-04-06T00:47:37.563Z,573.00
2024-04-06T00:48:32.659Z,576.00
2024-04-06T00:49:27.978Z,580.00
2024-04-06T00:50:22.954Z,586.00
2024-04-06T00:51:18.089Z,579.00
2024-04-06T00:52:13.380Z,576.00
2024-04-06T00:53:08.559Z,569.00
2024-04-06T00:54:04.100Z,576.00
2024-04-06T00:54:58.974Z,581.00
2024-04-06T00:55:54.089Z,578.00
2024-04-06T00:56:49.249Z,581.00
2024-04-06T00:57:44.333Z,581.00
2024-04-06T00:58:39.449Z,577.00
2024-04-06T00:59:34.734Z,583.00
2024-04-06T01:00:29.724Z,583.00
2024-04-06T01:01:24.847Z,583.00
2024-04-06T01:02:19.981Z,589.00
2024-04-06T01:03:15.110Z,583.00
2024-04-06T01:04:10.384Z,586.00
2024-04-06T01:05:05.385Z,574.00
2024-04-06T01:06:00.672Z,578.00
2024-04-06T01:06:55.811Z,583.00
2024-04-06T01:07:50.959Z,574.00
2024-04-06T01:08:46.141Z,578.00
2024-04-06T01:09:41.260Z,579.00
2024-04-06T01:10:36.366Z,580.00
2024-04-06T01:11:31.618Z,571.00
2024-04-06T01:12:26.773Z,584.00
2024-04-06T01:13:22.007Z,577.00
2024-04-06T01:14:17.265Z,584.00
2024-04-06T01:15:12.273Z,578.00
2024-04-06T01:16:07.411Z,581.00
2024-04-06T01:17:02.567Z,578.00
2024-04-06T01:17:58.022Z,575.00
2024-04-06T01:18:53.146Z,572.00
2024-04-06T01:19:48.423Z,579.00
2024-04-06T01:20:43.548Z,575.00
2024-04-06T01:21:38.630Z,578.00
2024-04-06T01:22:33.777Z,581.00
2024-04-06T01:23:28.937Z,576.00
2024-04-06T01:24:24.342Z,577.00
2024-04-06T01:25:19.213Z,583.00
2024-04-06T01:26:14.339Z,580.00
2024-04-06T01:27:09.479Z,579.00
2024-04-06T01:28:04.584Z,584.00
2024-04-06T01:28:59.725Z,573.00
2024-04-06T01:29:54.879Z,574.00
2024-04-06T01:30:50.130Z,568.00
2024-04-06T01:31:45.275Z,570.00
2024-04-06T01:32:40.453Z,581.00
2024-04-06T01:33:35.555Z,577.00
2024-04-06T01:34:31.080Z,573.00
2024-04-06T01:35:26.011Z,569.00
2024-04-06T01:36:21.107Z,569.00
2024-04-06T01:37:16.368Z,569.00
2024-04-06T01:38:11.558Z,571.00
2024-04-06T01:39:07.039Z,572.00
2024-04-06T01:40:02.067Z,574.00
2024-04-06T01:40:57.181Z,568.00
2024-04-06T01:41:52.293Z,578.00
2024-04-06T01:42:47.433Z,577.00
2024-04-06T01:43:42.539Z,573.00
2024-04-06T01:44:37.970Z,573.00
2024-04-06T01:45:32.938Z,575.00
2024-04-06T01:46:28.373Z,571.00
2024-04-06T01:47:23.524Z,570.00
2024-04-06T01:48:18.650Z,576.00
2024-04-06T01:49:14.029Z,577.00
2024-04-06T01:50:09.178Z,574.00
2024-04-06T01:51:04.360Z,575.00
2024-04-06T01:51:59.472Z,568.00
2024-04-06T01:52:54.627Z,552.00
2024-04-06T01:53:49.708Z,556.00
2024-04-06T01:54:45.118Z,565.00
2024-04-06T01:55:39.999Z,562.00
2024-04-06T01:56:35.113Z,562.00
2024-04-06T01:57:30.238Z,562.00
2024-04-06T01:58:25.350Z,566.00
2024-04-06T01:59:20.663Z,564.00
2024-04-06T02:00:15.656Z,559.00
2024-04-06T02:01:10.771Z,563.00
2024-04-06T02:02:05.922Z,558.00
2024-04-06T02:03:01.069Z,563.00
2024-04-06T02:03:56.161Z,562.00
2024-04-06T02:04:51.420Z,560.00
2024-04-06T02:05:46.441Z,556.00
2024-04-06T02:06:41.563Z,557.00
2024-04-06T02:07:36.702Z,558.00
2024-04-06T02:08:31.843Z,554.00
2024-04-06T02:09:27.095Z,546.00
2024-04-06T02:10:22.110Z,553.00
2024-04-06T02:11:17.218Z,545.00
2024-04-06T02:12:12.452Z,552.00
2024-04-06T02:13:07.469Z,547.00
2024-04-06T02:14:02.619Z,547.00
2024-04-06T02:14:57.637Z,553.00
2024-04-06T02:15:55.395Z,551.00
2024-04-06T02:16:50.514Z,550.00
2024-04-06T02:17:45.627Z,557.00
2024-04-06T02:18:40.771Z,552.00
2024-04-06T02:19:36.112Z,548.00
2024-04-06T02:20:31.736Z,551.00
2024-04-06T02:21:26.864Z,553.00
2024-04-06T02:22:22.196Z,555.00
2024-04-06T02:23:17.832Z,557.00
2024-04-06T02:24:13.172Z,554.00
2024-04-06T02:25:08.749Z,548.00
2024-04-06T02:26:03.868Z,556.00
2024-04-06T02:26:59.151Z,553.00
2024-04-06T02:27:54.876Z,556.00
2024-04-06T02:28:50.027Z,554.00
2024-04-06T02:29:45.336Z,557.00
2024-04-06T02:30:41.575Z,549.00
2024-04-06T02:31:36.757Z,555.00
2024-04-06T02:32:32.687Z,557.00
2024-04-06T02:33:27.805Z,551.00
2024-04-06T02:34:23.053Z,553.00
2024-04-06T02:35:18.807Z,554.00
2024-04-06T02:36:14.059Z,551.00
2024-04-06T02:37:09.894Z,554.00
2024-04-06T02:38:05.076Z,549.00
2024-04-06T02:39:00.303Z,553.00
2024-04-06T02:39:56.141Z,547.00
2024-04-06T02:40:52.178Z,554.00
2024-04-06T02:41:46.544Z,559.00
2024-04-06T02:42:41.579Z,555.00
2024-04-06T02:43:36.611Z,557.00
2024-04-06T02:44:31.817Z,598.00
2024-04-06T02:45:26.659Z,559.00
2024-04-06T02:46:21.688Z,556.00
2024-04-06T02:47:16.746Z,554.00
2024-04-06T02:48:11.804Z,561.00
2024-04-06T02:49:12.292Z,553.00
2024-04-06T02:50:07.221Z,566.00
2024-04-06T02:51:02.434Z,554.00
2024-04-06T02:51:58.207Z,555.00
2024-04-06T02:52:53.411Z,551.00
2024-04-06T02:53:48.721Z,562.00
2024-04-06T02:54:44.822Z,565.00
2024-04-06T02:55:39.998Z,562.00
2024-04-06T02:56:35.880Z,562.00
2024-04-06T02:57:31.006Z,559.00
2024-04-06T02:58:26.293Z,558.00
2024-04-06T02:59:22.249Z,563.00
2024-04-06T03:00:17.292Z,559.00
2024-04-06T03:01:13.151Z,559.00
2024-04-06T03:02:08.283Z,560.00
2024-04-06T03:03:03.588Z,561.00
2024-04-06T03:03:59.330Z,565.00
2024-04-06T03:04:54.534Z,562.00
2024-04-06T03:05:49.742Z,559.00
2024-04-06T03:06:46.049Z,561.00
2024-04-06T03:07:41.292Z,564.00
2024-04-06T03:08:37.022Z,558.00
2024-04-06T03:09:32.316Z,562.00
2024-04-06T03:10:27.414Z,561.00
2024-04-06T03:11:23.139Z,566.00
2024-04-06T03:12:18.424Z,570.00
2024-04-06T03:13:14.270Z,570.00
2024-04-06T03:14:09.389Z,560.00
2024-04-06T03:15:04.715Z,564.00
2024-04-06T03:16:02.298Z,564.00
2024-04-06T03:16:55.924Z,564.00
2024-04-06T03:17:52.022Z,570.00
2024-04-06T03:18:47.352Z,571.00
2024-04-06T03:19:42.616Z,575.00
2024-04-06T03:20:37.578Z,570.00
2024-04-06T03:21:32.833Z,567.00
2024-04-06T03:22:29.483Z,569.00
2024-04-06T03:23:24.689Z,561.00
2024-04-06T03:24:19.906Z,575.00
2024-04-06T03:25:16.231Z,563.00
2024-04-06T03:26:11.331Z,563.00
2024-04-06T03:27:07.148Z,565.00
2024-04-06T03:28:02.302Z,569.00
2024-04-06T03:28:57.525Z,573.00
2024-04-06T03:29:53.282Z,558.00
2024-04-06T03:30:48.532Z,562.00
2024-04-06T03:31:44.274Z,562.00
2024-04-06T03:32:39.489Z,558.00
2024-04-06T03:33:34.712Z,559.00
2024-04-06T03:34:30.513Z,582.00
2024-04-06T03:35:25.754Z,562.00
2024-04-06T03:36:21.198Z,568.00
2024-04-06T03:37:17.194Z,562.00
2024-04-06T03:38:12.369Z,569.00
2024-04-06T03:39:07.562Z,565.00
2024-04-06T03:40:02.944Z,563.00
2024-04-06T03:40:57.993Z,565.00
2024-04-06T03:41:53.935Z,566.00
2024-04-06T03:42:49.142Z,568.00
2024-04-06T03:43:44.338Z,557.00
2024-04-06T03:44:40.275Z,561.00
2024-04-06T03:45:35.344Z,565.00
2024-04-06T03:46:30.515Z,566.00
2024-04-06T03:47:25.765Z,563.00
2024-04-06T03:48:20.968Z,562.00
2024-04-06T03:49:16.434Z,565.00
2024-04-06T03:50:12.632Z,558.00
2024-04-06T03:51:07.809Z,561.00
2024-04-06T03:52:03.177Z,561.00
2024-04-06T03:53:02.301Z,587.00
2024-04-06T03:53:57.504Z,572.00
2024-04-06T03:54:52.730Z,569.00
2024-04-06T03:55:47.943Z,565.00
2024-04-06T03:56:43.019Z,566.00
2024-04-06T03:57:38.100Z,579.00
2024-04-06T03:58:33.089Z,567.00
2024-04-06T03:59:33.930Z,568.00
2024-04-06T04:00:29.258Z,571.00
2024-04-06T04:01:24.445Z,571.00
2024-04-06T04:02:19.520Z,573.00
2024-04-06T04:03:14.859Z,571.00
2024-04-06T04:04:10.072Z,572.00
2024-04-06T04:05:05.286Z,567.00
2024-04-06T04:06:00.554Z,571.00
2024-04-06T04:06:55.747Z,572.00
2024-04-06T04:07:50.947Z,574.00
2024-04-06T04:08:46.141Z,573.00
2024-04-06T04:09:41.390Z,573.00
2024-04-06T04:10:36.727Z,571.00
2024-04-06T04:11:32.017Z,569.00
2024-04-06T04:12:27.079Z,570.00
2024-04-06T04:13:22.306Z,559.00
2024-04-06T04:14:17.489Z,565.00
2024-04-06T04:15:12.707Z,571.00
2024-04-06T04:16:08.023Z,564.00
2024-04-06T04:17:03.102Z,563.00
2024-04-06T04:17:58.442Z,556.00
2024-04-06T04:18:53.823Z,556.00
2024-04-06T04:19:48.977Z,554.00
2024-04-06T04:20:44.375Z,552.00
2024-04-06T04:21:39.400Z,554.00
2024-04-06T04:22:34.509Z,557.00
2024-04-06T04:23:29.752Z,552.00
2024-04-06T04:24:24.951Z,562.00
2024-04-06T04:25:20.220Z,566.00
2024-04-06T04:26:15.431Z,563.00
2024-04-06T04:27:10.631Z,563.00
2024-04-06T04:28:05.966Z,559.00
2024-04-06T04:29:01.024Z,558.00
2024-04-06T04:29:56.250Z,558.00
2024-04-06T04:30:52.008Z,558.00
2024-04-06T04:31:47.228Z,564.00
2024-04-06T04:32:42.506Z,557.00
2024-04-06T04:33:37.724Z,557.00
2024-04-06T04:34:33.117Z,556.00
2024-04-06T04:35:28.383Z,562.00
2024-04-06T04:36:23.654Z,564.00
2024-04-06T04:37:18.914Z,558.00
2024-04-06T04:38:14.165Z,560.00
2024-04-06T04:39:09.270Z,557.00
2024-04-06T04:40:04.448Z,560.00
2024-04-06T04:40:59.296Z,551.00
2024-04-06T04:41:54.353Z,558.00
2024-04-06T04:42:49.388Z,557.00
2024-04-06T04:43:44.456Z,565.00
2024-04-06T04:44:43.350Z,562.00
2024-04-06T04:45:34.558Z,565.00
2024-04-06T04:46:29.626Z,570.00
2024-04-06T04:47:24.718Z,568.00
2024-04-06T04:48:19.908Z,565.00
2024-04-06T04:49:15.132Z,566.00
2024-04-06T04:50:10.414Z,567.00
2024-04-06T04:51:05.672Z,557.00
2024-04-06T04:52:00.812Z,566.00
2024-04-06T04:52:55.771Z,565.00
2024-04-06T04:53:50.788Z,561.00
2024-04-06T04:54:45.897Z,564.00
2024-04-06T04:55:40.901Z,561.00
2024-04-06T04:56:35.907Z,564.00
2024-04-06T04:57:30.958Z,559.00
2024-04-06T04:58:25.975Z,571.00
2024-04-06T04:59:21.021Z,561.00
2024-04-06T05:00:16.236Z,579.00
2024-04-06T05:01:11.125Z,568.00
2024-04-06T05:02:06.316Z,566.00
2024-04-06T05:03:01.364Z,561.00
2024-04-06T05:03:56.406Z,572.00
2024-04-06T05:04:51.593Z,569.00
2024-04-06T05:05:46.553Z,585.00
2024-04-06T05:06:41.681Z,579.00
2024-04-06T05:07:36.752Z,571.00
2024-04-06T05:08:31.867Z,571.00
2024-04-06T05:09:26.844Z,570.00
2024-04-06T05:10:21.948Z,565.00
2024-04-06T05:11:20.431Z,569.00
2024-04-06T05:12:15.527Z,565.00
2024-04-06T05:13:10.718Z,569.00
2024-04-06T05:14:05.888Z,573.00
2024-04-06T05:15:00.966Z,573.00
2024-04-06T05:15:56.043Z,571.00
2024-04-06T05:16:50.966Z,578.00
2024-04-06T05:17:46.032Z,565.00
2024-04-06T05:18:41.155Z,569.00
2024-04-06T05:19:36.261Z,575.00
2024-04-06T05:20:31.338Z,564.00
2024-04-06T05:21:26.344Z,571.00
2024-04-06T05:22:21.347Z,572.00
2024-04-06T05:23:16.394Z,573.00
2024-04-06T05:24:11.542Z,576.00
2024-04-06T05:25:06.942Z,573.00
2024-04-06T05:26:02.411Z,576.00
2024-04-06T05:26:57.809Z,571.00
2024-04-06T05:27:53.373Z,567.00
2024-04-06T05:28:48.651Z,577.00
2024-04-06T05:29:44.081Z,568.00
2024-04-06T05:30:39.676Z,569.00
2024-04-06T05:31:34.822Z,575.00
2024-04-06T05:32:30.247Z,571.00
2024-04-06T05:33:25.669Z,567.00
2024-04-06T05:34:25.147Z,561.00
2024-04-06T05:35:20.517Z,559.00
2024-04-06T05:36:16.221Z,575.00
2024-04-06T05:37:11.377Z,561.00
2024-04-06T05:38:06.818Z,559.00
2024-04-06T05:39:02.124Z,558.00
2024-04-06T05:39:57.552Z,549.00
2024-04-06T05:40:52.975Z,552.00
2024-04-06T05:41:48.412Z,550.00
2024-04-06T05:42:43.907Z,549.00
2024-04-06T05:43:39.320Z,551.00
2024-04-06T05:44:34.829Z,546.00
2024-04-06T05:45:30.273Z,549.00
2024-04-06T05:46:25.868Z,548.00
2024-04-06T05:47:21.227Z,547.00
2024-04-06T05:48:16.283Z,546.00
2024-04-06T05:49:11.338Z,542.00
2024-04-06T05:50:06.413Z,544.00
2024-04-06T05:51:01.495Z,540.00
2024-04-06T05:51:56.649Z,541.00
2024-04-06T05:52:51.677Z,550.00
2024-04-06T05:53:48.608Z,540.00
2024-04-06T05:54:43.735Z,539.00
2024-04-06T05:55:38.824Z,539.00
2024-04-06T05:56:35.037Z,540.00
2024-04-06T05:57:28.986Z,539.00
2024-04-06T05:58:24.198Z,545.00
2024-04-06T05:59:19.314Z,547.00
2024-04-06T06:00:14.318Z,549.00
2024-04-06T06:01:09.592Z,548.00
2024-04-06T06:02:04.508Z,550.00
2024-04-06T06:03:00.832Z,558.00
2024-04-06T06:03:56.266Z,557.00
2024-04-06T06:04:52.252Z,548.00
2024-04-06T06:05:47.737Z,546.00
2024-04-06T06:06:43.434Z,549.00
2024-04-06T06:07:38.970Z,546.00
2024-04-06T06:08:34.354Z,543.00
2024-04-06T06:09:30.153Z,544.00
2024-04-06T06:10:25.494Z,547.00
2024-04-06T06:11:21.003Z,545.00
2024-04-06T06:12:16.886Z,541.00
2024-04-06T06:13:12.270Z,547.00
2024-04-06T06:14:07.727Z,533.00
2024-04-06T06:15:03.921Z,541.00
2024-04-06T06:15:59.408Z,555.00
2024-04-06T06:16:55.312Z,540.00
2024-04-06T06:17:50.670Z,551.00
2024-04-06T06:18:46.145Z,546.00
2024-04-06T06:19:41.951Z,542.00
2024-04-06T06:20:37.494Z,541.00
2024-04-06T06:21:33.520Z,601.00
2024-04-06T06:22:28.803Z,553.00
2024-04-06T06:23:24.153Z,545.00
2024-04-06T06:24:19.943Z,538.00
2024-04-06T06:25:15.422Z,541.00
2024-04-06T06:26:11.058Z,546.00
2024-04-06T06:27:07.112Z,541.00
2024-04-06T06:28:02.565Z,539.00
2024-04-06T06:28:58.527Z,535.00
2024-04-06T06:29:53.838Z,534.00
2024-04-06T06:30:49.306Z,554.00
2024-04-06T06:31:45.076Z,553.00
2024-04-06T06:32:40.586Z,539.00
2024-04-06T06:33:36.444Z,542.00
2024-04-06T06:34:31.797Z,547.00
2024-04-06T06:35:27.288Z,534.00
2024-04-06T06:38:13.911Z,540.00
2024-04-06T06:41:00.587Z,534.00
2024-04-06T06:41:56.058Z,531.00
2024-04-06T06:42:52.398Z,539.00
2024-04-06T06:43:47.861Z,539.00
2024-04-06T06:44:43.636Z,540.00
2024-04-06T06:45:39.149Z,541.00
2024-04-06T06:46:34.524Z,542.00
2024-04-06T06:47:30.543Z,547.00
2024-04-06T06:48:25.990Z,544.00
2024-04-06T06:49:21.766Z,545.00
2024-04-06T06:50:17.234Z,542.00
2024-04-06T06:51:12.725Z,546.00
2024-04-06T06:52:08.377Z,541.00
2024-04-06T06:53:03.689Z,547.00
2024-04-06T06:53:59.470Z,549.00
2024-04-06T06:54:54.990Z,543.00
2024-04-06T06:55:50.919Z,539.00
2024-04-06T06:56:46.172Z,544.00
2024-04-06T06:57:41.508Z,535.00
2024-04-06T06:58:37.275Z,543.00
2024-04-06T07:00:28.275Z,537.00
2024-04-06T07:01:23.364Z,540.00
2024-04-06T07:02:18.481Z,534.00
2024-04-06T07:03:13.702Z,539.00
2024-04-06T07:04:08.673Z,531.00
2024-04-06T07:05:03.785Z,549.00
2024-04-06T07:05:58.950Z,555.00
2024-04-06T07:07:49.187Z,547.00
2024-04-06T07:09:02.274Z,552.00
2024-04-06T07:09:40.337Z,547.00
2024-04-06T07:10:34.333Z,547.00
2024-04-06T07:11:30.214Z,560.00
2024-04-06T07:12:25.837Z,555.00
2024-04-06T07:13:21.226Z,552.00
2024-04-06T07:14:17.092Z,568.00
2024-04-06T07:15:12.556Z,563.00
2024-04-06T07:16:08.083Z,552.00
2024-04-06T07:17:03.565Z,552.00
2024-04-06T07:17:58.642Z,557.00
2024-04-06T07:18:53.698Z,556.00
2024-04-06T07:19:48.689Z,557.00
2024-04-06T07:20:43.714Z,554.00
2024-04-06T07:21:38.840Z,564.00
2024-04-06T07:22:33.825Z,569.00
2024-04-06T07:23:28.829Z,564.00
2024-04-06T07:24:23.961Z,556.00
2024-04-06T07:25:18.923Z,548.00
2024-04-06T07:26:13.936Z,547.00
2024-04-06T07:27:09.095Z,552.00
2024-04-06T07:28:04.148Z,549.00
2024-04-06T07:28:59.228Z,557.00
2024-04-06T07:29:54.358Z,550.00
2024-04-06T07:30:49.356Z,544.00
2024-04-06T07:31:44.373Z,549.00
2024-04-06T07:32:39.364Z,550.00
2024-04-06T07:33:34.374Z,544.00
2024-04-06T07:34:29.354Z,554.00
2024-04-06T07:35:24.883Z,548.00
2024-04-06T07:36:20.449Z,553.00
2024-04-06T07:37:15.692Z,555.00
2024-04-06T07:38:13.839Z,554.00
2024-04-06T07:40:02.743Z,550.00
2024-04-06T07:40:58.208Z,552.00
2024-04-06T07:41:53.808Z,553.00
2024-04-06T07:42:49.371Z,547.00
2024-04-06T07:43:44.816Z,542.00
2024-04-06T07:44:40.379Z,546.00
2024-04-06T07:45:35.804Z,552.00
2024-04-06T07:46:31.386Z,545.00
2024-04-06T07:47:26.526Z,539.00
2024-04-06T07:48:21.817Z,534.00
2024-04-06T07:49:17.194Z,532.00
2024-04-06T07:50:12.752Z,530.00
2024-04-06T07:51:08.202Z,527.00
2024-04-06T07:52:03.972Z,542.00
2024-04-06T07:52:59.326Z,546.00
2024-04-06T07:53:54.619Z,552.00
2024-04-06T07:54:50.081Z,541.00
2024-04-06T07:55:45.754Z,543.00
2024-04-06T07:56:40.773Z,538.00
2024-04-06T07:57:35.937Z,540.00
2024-04-06T07:58:30.859Z,538.00
2024-04-06T07:59:25.881Z,536.00
2024-04-06T08:00:20.898Z,540.00
2024-04-06T08:01:15.971Z,540.00
2024-04-06T08:02:11.140Z,542.00
2024-04-06T08:03:06.023Z,537.00
2024-04-06T08:04:01.111Z,535.00
2024-04-06T08:04:56.092Z,539.00
2024-04-06T08:05:53.090Z,537.00
2024-04-06T08:06:48.179Z,534.00
2024-04-06T08:07:43.226Z,537.00
2024-04-06T08:08:38.309Z,534.00
2024-04-06T08:09:34.274Z,539.00
2024-04-06T08:10:29.847Z,545.00
2024-04-06T08:11:25.308Z,538.00
2024-04-06T08:12:21.048Z,543.00
2024-04-06T08:13:16.413Z,536.00
2024-04-06T08:14:20.754Z,542.00
2024-04-06T08:15:07.818Z,541.00
2024-04-06T08:16:01.932Z,542.00
2024-04-06T08:16:56.903Z,544.00
2024-04-06T08:17:52.068Z,541.00
2024-04-06T08:18:46.987Z,540.00
2024-04-06T08:19:42.002Z,550.00
2024-04-06T08:20:37.015Z,543.00
2024-04-06T08:21:32.026Z,539.00
2024-04-06T08:22:27.424Z,538.00
2024-04-06T08:23:22.336Z,548.00
2024-04-06T08:24:17.371Z,543.00
2024-04-06T08:25:12.405Z,538.00
2024-04-06T08:26:07.411Z,547.00
2024-04-06T08:27:02.436Z,540.00
2024-04-06T08:27:57.490Z,542.00
2024-04-06T08:28:52.509Z,545.00
2024-04-06T08:29:47.528Z,545.00
2024-04-06T08:30:42.986Z,538.00
2024-04-06T08:31:38.082Z,541.00
2024-04-06T08:32:33.227Z,542.00
2024-04-06T08:33:28.204Z,536.00
2024-04-06T08:34:23.209Z,550.00
2024-04-06T08:35:18.241Z,538.00
2024-04-06T08:36:13.272Z,542.00
2024-04-06T08:37:08.330Z,538.00
2024-04-06T08:38:05.695Z,540.00
2024-04-06T08:39:00.720Z,539.00
2024-04-06T08:39:55.850Z,535.00
2024-04-06T08:40:50.884Z,531.00
2024-04-06T08:41:45.902Z,542.00
2024-04-06T08:42:40.976Z,535.00
2024-04-06T08:43:35.978Z,520.00
2024-04-06T08:44:31.018Z,515.00
2024-04-06T08:45:27.163Z,519.00
2024-04-06T08:46:22.690Z,521.00
2024-04-06T08:47:18.296Z,521.00
2024-04-06T08:48:13.880Z,537.00
2024-04-06T08:49:09.294Z,518.00
2024-04-06T08:50:04.689Z,517.00
2024-04-06T08:51:00.186Z,517.00
2024-04-06T08:51:55.574Z,518.00
2024-04-06T08:52:51.139Z,517.00
2024-04-06T08:53:46.453Z,511.00
2024-04-06T08:54:41.465Z,514.00
2024-04-06T08:55:36.507Z,518.00
2024-04-06T08:56:31.557Z,516.00
2024-04-06T08:57:26.592Z,517.00
2024-04-06T08:58:21.778Z,531.00
2024-04-06T08:59:16.649Z,519.00
2024-04-06T09:00:11.778Z,515.00
2024-04-06T09:01:09.891Z,514.00
2024-04-06T09:02:04.995Z,515.00
2024-04-06T09:03:00.044Z,516.00
2024-04-06T09:03:55.043Z,510.00
2024-04-06T09:04:50.173Z,511.00
2024-04-06T09:05:45.158Z,512.00
2024-04-06T09:06:40.347Z,517.00
2024-04-06T09:07:35.464Z,520.00
2024-04-06T09:08:31.288Z,519.00
2024-04-06T09:09:26.850Z,519.00
2024-04-06T09:10:22.410Z,519.00
2024-04-06T09:11:17.986Z,521.00
2024-04-06T09:12:13.542Z,510.00
2024-04-06T09:13:09.181Z,515.00
2024-04-06T09:14:04.669Z,520.00
2024-04-06T09:15:00.187Z,515.00
2024-04-06T09:15:55.570Z,525.00
2024-04-06T09:16:50.881Z,513.00
2024-04-06T09:17:45.889Z,566.00
2024-04-06T09:18:40.913Z,528.00
2024-04-06T09:19:36.017Z,524.00
2024-04-06T09:20:31.071Z,525.00
2024-04-06T09:21:26.147Z,516.00
2024-04-06T09:22:21.153Z,517.00
2024-04-06T09:23:16.335Z,513.00
2024-04-06T09:24:13.515Z,521.00
2024-04-06T09:25:08.720Z,525.00
2024-04-06T09:26:03.718Z,535.00
2024-04-06T09:26:58.707Z,539.00
2024-04-06T09:27:53.800Z,515.00
2024-04-06T09:28:48.962Z,523.00
2024-04-06T09:29:43.993Z,513.00
2024-04-06T09:30:38.971Z,511.00
2024-04-06T09:31:35.219Z,513.00
2024-04-06T09:32:30.765Z,519.00
2024-04-06T09:33:26.129Z,526.00
2024-04-06T09:34:21.851Z,527.00
2024-04-06T09:35:17.115Z,514.00
2024-04-06T09:36:12.684Z,523.00
2024-04-06T09:37:09.206Z,521.00
2024-04-06T09:38:04.724Z,528.00
2024-04-06T09:39:00.437Z,532.00
2024-04-06T09:39:55.703Z,517.00
2024-04-06T09:40:51.203Z,514.00
2024-04-06T09:41:46.717Z,523.00
2024-04-06T09:42:41.991Z,523.00
2024-04-06T09:43:37.677Z,525.00
2024-04-06T09:44:33.387Z,481.00
2024-04-06T09:45:28.697Z,492.00
2024-04-06T09:46:24.379Z,477.00
2024-04-06T09:47:20.017Z,472.00
2024-04-06T09:48:15.569Z,479.00
2024-04-06T09:49:11.110Z,472.00
2024-04-06T09:50:06.168Z,475.00
2024-04-06T09:51:01.188Z,479.00
2024-04-06T09:51:56.206Z,475.00
2024-04-06T09:52:51.231Z,482.00
2024-04-06T09:53:46.409Z,476.00
2024-04-06T09:54:41.505Z,480.00
2024-04-06T09:55:36.556Z,476.00
2024-04-06T09:56:31.574Z,475.00
2024-04-06T09:57:26.602Z,483.00
2024-04-06T09:58:21.644Z,480.00
2024-04-06T09:59:16.759Z,475.00
2024-04-06T10:00:11.815Z,473.00
2024-04-06T10:01:09.404Z,480.00
2024-04-06T10:02:04.384Z,478.00
2024-04-06T10:02:59.432Z,475.00
2024-04-06T10:03:54.546Z,476.00
2024-04-06T10:04:49.671Z,475.00
2024-04-06T10:05:44.899Z,482.00
2024-04-06T10:06:39.794Z,428.00
2024-04-06T10:07:34.835Z,433.00
2024-04-06T10:08:29.948Z,430.00
2024-04-06T10:09:25.214Z,435.00
2024-04-06T10:10:21.743Z,427.00
2024-04-06T10:11:17.358Z,435.00
2024-04-06T10:12:12.888Z,434.00
2024-04-06T10:13:08.469Z,426.00
2024-04-06T10:14:03.923Z,438.00
2024-04-06T10:14:59.894Z,430.00
2024-04-06T10:15:55.331Z,435.00
2024-04-06T10:16:51.174Z,433.00
2024-04-06T10:17:46.492Z,429.00
2024-04-06T10:18:41.985Z,440.00
2024-04-06T10:19:37.738Z,430.00
2024-04-06T10:20:33.036Z,429.00
2024-04-06T10:21:28.614Z,430.00
2024-04-06T10:22:24.988Z,429.00
2024-04-06T10:23:20.413Z,424.00
2024-04-06T10:24:16.260Z,424.00
2024-04-06T10:25:11.687Z,429.00
2024-04-06T10:26:07.241Z,429.00
2024-04-06T10:27:02.995Z,430.00
2024-04-06T10:27:58.510Z,434.00
2024-04-06T10:28:54.352Z,432.00
2024-04-06T10:29:49.791Z,432.00
2024-04-06T10:30:45.380Z,431.00
2024-04-06T10:31:47.335Z,429.00
2024-04-06T10:32:37.561Z,425.00
2024-04-06T10:33:32.049Z,433.00
2024-04-06T10:34:31.540Z,433.00
2024-04-06T10:35:23.151Z,430.00
2024-04-06T10:36:17.500Z,425.00
2024-04-06T10:37:12.407Z,421.00
2024-04-06T10:38:07.391Z,424.00
2024-04-06T10:39:02.369Z,442.00
2024-04-06T10:39:57.948Z,423.00
2024-04-06T10:40:53.548Z,419.00
2024-04-06T10:41:48.987Z,504.00
2024-04-06T10:42:44.711Z,431.00
2024-04-06T10:43:40.336Z,435.00
2024-04-06T10:44:36.146Z,435.00
2024-04-06T10:45:31.731Z,425.00
2024-04-06T10:46:27.140Z,427.00
2024-04-06T10:47:22.981Z,421.00
2024-04-06T10:48:18.269Z,425.00
2024-04-06T10:49:13.964Z,424.00
2024-04-06T10:50:10.048Z,425.00
2024-04-06T10:51:05.870Z,420.00
2024-04-06T10:52:01.534Z,420.00
2024-04-06T10:52:56.941Z,413.00
2024-04-06T10:53:52.548Z,421.00
2024-04-06T10:54:48.327Z,438.00
2024-04-06T10:55:43.624Z,422.00
2024-04-06T10:56:39.520Z,423.00
2024-04-06T10:57:34.771Z,420.00
2024-04-06T10:58:30.274Z,419.00
2024-04-06T10:59:25.773Z,417.00
2024-04-06T11:00:21.323Z,418.00
2024-04-06T11:01:17.286Z,426.00
2024-04-06T11:02:12.455Z,414.00
2024-04-06T11:03:08.291Z,416.00
2024-04-06T11:04:03.662Z,419.00
2024-04-06T11:04:59.142Z,418.00
2024-04-06T11:05:54.938Z,420.00
2024-04-06T11:06:50.556Z,417.00
2024-04-06T11:07:46.030Z,419.00
2024-04-06T11:08:42.191Z,423.00
2024-04-06T11:09:37.841Z,421.00
2024-04-06T11:10:33.869Z,416.00
2024-04-06T11:11:29.386Z,423.00
2024-04-06T11:12:24.728Z,424.00
2024-04-06T11:13:20.558Z,419.00
2024-04-06T11:14:16.125Z,415.00
2024-04-06T11:15:11.616Z,420.00
2024-04-06T11:16:07.114Z,420.00
2024-04-06T11:17:02.611Z,431.00
2024-04-06T11:17:59.195Z,422.00
2024-04-06T11:18:55.952Z,413.00
2024-04-06T11:19:51.309Z,418.00
2024-04-06T11:20:46.810Z,420.00
2024-04-06T11:21:42.867Z,419.00
2024-04-06T11:24:02.458Z,409.00
2024-04-06T11:25:00.436Z,415.00
2024-04-06T11:25:53.175Z,417.00
2024-04-06T11:26:48.607Z,419.00
2024-04-06T11:27:43.918Z,416.00
2024-04-06T11:28:39.428Z,412.00
2024-04-06T11:29:34.793Z,414.00
2024-04-06T11:30:30.267Z,420.00
2024-04-06T11:31:25.805Z,426.00
2024-04-06T11:32:21.313Z,429.00
2024-04-06T11:33:16.740Z,416.00
2024-04-06T11:34:12.224Z,418.00
2024-04-06T11:35:07.685Z,415.00
2024-04-06T11:36:02.985Z,422.00
2024-04-06T11:36:58.377Z,414.00
2024-04-06T11:37:53.847Z,416.00
2024-04-06T11:38:49.339Z,438.00